Time;durP1;ratioP1;P1;durP2;ratioP2;P2;SDS_P1;SDS_P2;PMS_P1;PMS_P2;Temp;Humidity;BMP_temperature;BMP_pressure;BME280_temperature;BME280_humidity;BME280_pressure;Samples;Min_cycle;Max_cycle;Signal;HPM_P1;HPM_P2
2023/12/14 00:01:40;;;;;;;42.30;38.10;;;;;;;3.17;100.00;96474.27;106923;1279;25433;-78
2023/12/14 00:04:08;;;;;;;39.80;35.90;;;;;;;3.18;100.00;96483.07;106585;1281;23911;-77
2023/12/14 00:06:36;;;;;;;38.20;34.40;;;;;;;3.20;100.00;96476.77;106560;1257;24450;-77
2023/12/14 00:09:04;;;;;;;39.30;35.60;;;;;;;3.21;100.00;96484.45;106403;1273;22629;-77
2023/12/14 00:11:32;;;;;;;39.30;35.60;;;;;;;3.19;100.00;96482.04;106333;1273;22539;-77
2023/12/14 00:14:00;;;;;;;41.40;37.40;;;;;;;3.18;100.00;96484.86;106592;1272;25235;-78
2023/12/14 00:16:28;;;;;;;42.00;38.00;;;;;;;3.16;100.00;96489.74;106696;1265;24216;-78
2023/12/14 00:18:56;;;;;;;39.80;36.10;;;;;;;3.12;100.00;96498.04;106703;1281;22547;-77
2023/12/14 00:21:24;;;;;;;40.80;37.00;;;;;;;3.10;100.00;96498.23;106788;1267;22573;-78
2023/12/14 00:23:52;;;;;;;37.30;33.70;;;;;;;3.13;100.00;96503.51;106347;1281;22549;-79
2023/12/14 00:26:20;;;;;;;38.20;34.60;;;;;;;3.17;100.00;96505.16;106827;1274;24311;-79
2023/12/14 00:28:48;;;;;;;39.80;36.30;;;;;;;3.20;100.00;96505.39;106701;1281;22501;-78
2023/12/14 00:31:17;;;;;;;36.40;33.00;;;;;;;3.25;100.00;96508.58;107075;1275;25293;-78
2023/12/14 00:33:45;;;;;;;36.70;33.20;;;;;;;3.27;100.00;96514.57;107149;1275;24098;-78
2023/12/14 00:36:20;;;;;;;34.90;31.50;;;;;;;3.27;100.00;96521.23;107676;1279;22472;-80
2023/12/14 00:38:48;;;;;;;34.70;31.40;;;;;;;3.21;100.00;96529.23;107219;1281;25355;-79
2023/12/14 00:41:16;;;;;;;32.60;29.40;;;;;;;3.09;100.00;96530.17;106878;1281;22556;-78
2023/12/14 00:43:44;;;;;;;36.10;32.50;;;;;;;3.00;100.00;96532.23;106557;1281;25364;-79
2023/12/14 00:46:12;;;;;;;34.20;30.80;;;;;;;3.01;100.00;96532.39;106734;1275;22806;-78
2023/12/14 00:48:39;;;;;;;35.90;32.50;;;;;;;3.04;100.00;96531.39;106810;1268;22563;-79
2023/12/14 00:51:08;;;;;;;37.30;33.70;;;;;;;3.07;100.00;96532.77;106799;1281;24293;-79
2023/12/14 00:53:35;;;;;;;35.10;31.60;;;;;;;3.11;100.00;96536.74;106806;1278;24495;-80
2023/12/14 00:56:04;;;;;;;38.10;34.40;;;;;;;3.12;100.00;96538.91;106488;1279;22663;-78
2023/12/14 00:58:31;;;;;;;45.10;40.80;;;;;;;3.08;100.00;96542.26;106766;1281;22543;-78
2023/12/14 01:01:00;;;;;;;43.60;39.40;;;;;;;3.06;100.00;96546.17;106816;1275;25413;-79
2023/12/14 01:03:28;;;;;;;41.10;37.00;;;;;;;3.08;100.00;96546.26;106729;1281;22728;-78
2023/12/14 01:05:57;;;;;;;39.40;35.40;;;;;;;3.08;100.00;96549.92;106687;1280;23157;-79
2023/12/14 01:08:25;;;;;;;41.10;37.00;;;;;;;3.06;100.00;96549.42;106624;1280;22558;-79
2023/12/14 01:10:53;;;;;;;40.10;36.20;;;;;;;3.08;100.00;96548.17;106935;1266;25389;-78
2023/12/14 01:13:21;;;;;;;40.50;36.50;;;;;;;3.12;100.00;96548.52;106836;1281;23891;-79
2023/12/14 01:15:50;;;;;;;43.60;39.20;;;;;;;3.12;100.00;96549.46;106629;1272;22553;-80
2023/12/14 01:18:18;;;;;;;44.40;39.90;;;;;;;3.09;100.00;96551.73;106827;1265;24861;-78
2023/12/14 01:20:46;;;;;;;43.20;38.90;;;;;;;3.00;100.00;96548.68;106696;1280;25304;-79
2023/12/14 01:23:14;;;;;;;41.40;37.30;;;;;;;2.93;100.00;96549.40;106796;1275;25364;-78
2023/12/14 01:25:42;;;;;;;43.20;38.80;;;;;;;2.91;100.00;96551.66;106756;1275;22566;-79
2023/12/14 01:28:10;;;;;;;42.60;38.20;;;;;;;2.91;100.00;96549.11;106779;1270;23481;-79
2023/12/14 01:30:38;;;;;;;43.50;39.00;;;;;;;2.93;100.00;96545.77;106799;1270;22530;-78
2023/12/14 01:33:06;;;;;;;46.40;41.90;;;;;;;2.94;100.00;96547.27;106718;1281;24326;-79
2023/12/14 01:35:35;;;;;;;45.30;40.80;;;;;;;2.94;100.00;96548.80;106758;1281;25548;-78
2023/12/14 01:38:03;;;;;;;44.50;39.80;;;;;;;2.94;100.00;96552.31;106675;1281;22623;-79
2023/12/14 01:40:32;;;;;;;46.10;41.30;;;;;;;2.90;100.00;96554.54;106629;1281;22549;-78
2023/12/14 01:43:08;;;;;;;41.40;37.30;;;;;;;2.89;100.00;96557.42;106394;1269;25258;-77
2023/12/14 01:45:37;;;;;;;41.90;37.80;;;;;;;2.92;100.00;96553.60;106397;1258;22896;-78
2023/12/14 01:48:05;;;;;;;44.90;40.40;;;;;;;2.93;100.00;96553.77;106756;1273;25258;-78
2023/12/14 01:50:33;;;;;;;44.50;39.80;;;;;;;2.90;100.00;96549.05;106749;1279;25498;-79
2023/12/14 01:53:01;;;;;;;47.50;42.70;;;;;;;2.91;100.00;96550.21;106613;1280;22534;-79
2023/12/14 01:55:30;;;;;;;50.40;45.40;;;;;;;2.90;100.00;96544.58;106696;1281;24053;-81
2023/12/14 01:57:59;;;;;;;50.40;45.20;;;;;;;2.86;100.00;96545.36;106798;1266;24353;-79
2023/12/14 02:00:41;;;;;;;48.50;43.60;;;;;;;2.83;100.00;96551.05;106819;1281;24213;-79
2023/12/14 02:03:09;;;;;;;48.80;43.80;;;;;;;2.81;100.00;96552.02;106873;1265;25360;-80
2023/12/14 02:05:37;;;;;;;51.80;46.70;;;;;;;2.82;100.00;96551.91;106923;1275;23287;-77
2023/12/14 02:08:05;;;;;;;52.40;47.10;;;;;;;2.80;100.00;96549.59;106458;1280;22561;-78
2023/12/14 02:10:33;;;;;;;46.70;42.00;;;;;;;2.79;100.00;96551.77;106903;1281;22546;-79
2023/12/14 02:13:02;;;;;;;46.10;41.60;;;;;;;2.77;100.00;96553.61;106771;1275;22659;-79
2023/12/14 02:15:30;;;;;;;47.80;43.10;;;;;;;2.75;100.00;96554.95;106732;1281;22577;-78
2023/12/14 02:17:58;;;;;;;47.20;42.60;;;;;;;2.73;100.00;96556.52;106711;1269;24253;-78
2023/12/14 02:20:26;;;;;;;46.60;41.80;;;;;;;2.70;100.00;96558.77;106763;1273;25768;-78
2023/12/14 02:22:55;;;;;;;45.40;40.80;;;;;;;2.68;100.00;96561.19;106731;1278;25427;-78
2023/12/14 02:25:24;;;;;;;43.50;39.00;;;;;;;2.62;100.00;96561.35;106727;1269;22660;-79
2023/12/14 02:27:52;;;;;;;44.50;39.90;;;;;;;2.60;100.00;96559.14;106739;1281;24333;-78
2023/12/14 02:30:20;;;;;;;42.70;38.10;;;;;;;2.56;100.00;96561.51;106807;1281;22770;-78
2023/12/14 02:32:48;;;;;;;46.30;41.70;;;;;;;2.54;100.00;96564.94;106785;1270;22543;-78
2023/12/14 02:35:18;;;;;;;47.80;42.80;;;;;;;2.54;100.00;96566.58;106753;1270;22593;-78
2023/12/14 02:37:46;;;;;;;46.20;41.30;;;;;;;2.48;100.00;96568.48;106748;1266;22544;-78
2023/12/14 02:40:14;;;;;;;50.50;44.80;;;;;;;2.44;100.00;96571.02;106755;1278;22795;-78
2023/12/14 02:42:42;;;;;;;50.00;44.50;;;;;;;2.40;100.00;96569.30;106683;1273;25271;-78
2023/12/14 02:45:10;;;;;;;48.70;43.50;;;;;;;2.37;100.00;96574.96;106834;1278;23924;-76
2023/12/14 02:47:38;;;;;;;49.70;44.10;;;;;;;2.33;100.00;96575.73;106493;1280;22540;-77
2023/12/14 02:50:07;;;;;;;55.60;49.00;;;;;;;2.25;100.00;96573.14;106404;1281;25379;-77
2023/12/14 02:52:35;;;;;;;56.30;50.20;;;;;;;2.21;100.00;96575.13;106377;1273;24483;-78
2023/12/14 02:55:03;;;;;;;58.30;48.00;;;;;;;2.19;100.00;96578.77;106692;1267;23415;-78
2023/12/14 02:57:31;;;;;;;52.60;45.90;;;;;;;2.17;100.00;96583.55;106735;1278;24251;-78
2023/12/14 02:59:59;;;;;;;53.30;46.50;;;;;;;2.18;100.00;96586.27;106320;1274;25436;-78
2023/12/14 03:02:27;;;;;;;56.00;48.60;;;;;;;2.19;100.00;96588.54;106405;1277;24391;-77
2023/12/14 03:04:55;;;;;;;55.10;47.50;;;;;;;2.22;100.00;96588.52;106334;1267;24346;-78
2023/12/14 03:07:23;;;;;;;50.60;45.20;;;;;;;2.25;100.00;96591.58;106340;1267;22553;-77
2023/12/14 03:09:51;;;;;;;51.50;45.90;;;;;;;2.27;100.00;96593.91;106624;1258;22544;-78
2023/12/14 03:12:19;;;;;;;49.50;44.10;;;;;;;2.31;100.00;96597.23;106738;1265;22584;-79
2023/12/14 03:14:47;;;;;;;56.20;45.90;;;;;;;2.34;100.00;96596.30;106697;1278;22616;-77
2023/12/14 03:17:16;;;;;;;55.20;49.50;;;;;;;2.35;100.00;96598.09;106467;1281;26269;-79
2023/12/14 03:19:44;;;;;;;52.30;44.70;;;;;;;2.38;100.00;96594.90;106341;1268;22558;-77
2023/12/14 03:22:12;;;;;;;51.00;45.40;;;;;;;2.34;100.00;96596.15;106529;1267;23309;-79
2023/12/14 03:24:40;;;;;;;54.80;47.20;;;;;;;2.35;100.00;96597.09;106391;1270;22604;-79
2023/12/14 03:27:08;;;;;;;52.90;45.90;;;;;;;2.36;100.00;96604.16;106386;1267;22623;-79
2023/12/14 03:29:36;;;;;;;59.30;47.50;;;;;;;2.40;100.00;96604.88;106407;1281;24257;-78
2023/12/14 03:32:04;;;;;;;55.00;46.40;;;;;;;2.43;100.00;96611.97;106409;1277;25481;-79
2023/12/14 03:34:33;;;;;;;57.70;47.60;;;;;;;2.43;100.00;96616.06;106731;1269;22596;-78
2023/12/14 03:37:01;;;;;;;76.90;52.50;;;;;;;2.42;100.00;96618.63;106671;1275;22547;-78
2023/12/14 03:39:29;;;;;;;59.50;47.90;;;;;;;2.44;100.00;96624.73;106815;1273;25323;-80
2023/12/14 03:41:57;;;;;;;56.10;47.30;;;;;;;2.47;100.00;96629.33;108236;1281;23325;-78
2023/12/14 03:44:25;;;;;;;57.10;46.90;;;;;;;2.51;100.00;96635.67;107951;1273;22700;-76
2023/12/14 03:46:54;;;;;;;61.80;48.00;;;;;;;2.56;100.00;96644.58;106453;1281;24253;-78
2023/12/14 03:49:49;;;;;;;60.50;51.60;;;;;;;2.58;100.00;96647.70;106709;1281;24228;-78
2023/12/14 03:52:17;;;;;;;60.30;50.10;;;;;;;2.62;100.00;96653.15;106892;1273;24250;-79
2023/12/14 03:54:45;;;;;;;55.50;49.20;;;;;;;2.66;100.00;96658.17;106699;1273;24264;-79
2023/12/14 03:57:13;;;;;;;63.20;49.00;;;;;;;2.67;100.00;96658.74;106879;1278;22584;-79
2023/12/14 03:59:41;;;;;;;64.70;46.60;;;;;;;2.65;100.00;96659.84;106828;1266;23224;-79
2023/12/14 04:02:09;;;;;;;55.60;45.40;;;;;;;2.62;100.00;96659.38;106686;1275;22700;-79
2023/12/14 04:04:37;;;;;;;57.60;49.80;;;;;;;2.58;100.00;96663.97;106744;1268;24287;-78
2023/12/14 04:07:05;;;;;;;51.10;45.40;;;;;;;2.61;100.00;96669.75;106729;1276;23955;-78
2023/12/14 04:09:33;;;;;;;49.60;43.90;;;;;;;2.63;100.00;96676.70;106739;1281;22570;-81
2023/12/14 04:12:01;;;;;;;44.60;39.70;;;;;;;2.69;100.00;96681.02;106728;1267;22791;-77
2023/12/14 04:14:29;;;;;;;46.70;41.60;;;;;;;2.70;100.00;96686.02;106844;1266;22632;-77
2023/12/14 04:16:57;;;;;;;49.00;43.50;;;;;;;2.68;100.00;96685.45;106809;1281;22568;-78
2023/12/14 04:19:25;;;;;;;46.30;41.30;;;;;;;2.68;100.00;96693.53;106477;1281;22639;-77
2023/12/14 04:21:53;;;;;;;49.00;43.20;;;;;;;2.69;100.00;96699.06;106351;1281;22590;-77
2023/12/14 04:24:22;;;;;;;43.60;38.90;;;;;;;2.70;100.00;96702.93;106354;1281;22626;-78
2023/12/14 04:26:50;;;;;;;45.20;40.50;;;;;;;2.71;100.00;96703.56;106377;1275;25441;-79
2023/12/14 04:29:18;;;;;;;43.20;38.50;;;;;;;2.72;100.00;96704.77;106791;1281;24375;-77
2023/12/14 04:31:46;;;;;;;44.70;39.90;;;;;;;2.67;100.00;96700.41;106676;1281;24369;-79
2023/12/14 04:34:15;;;;;;;43.70;39.00;;;;;;;2.60;100.00;96701.94;106901;1281;22565;-80
2023/12/14 04:36:45;;;;;;;45.10;40.20;;;;;;;2.58;100.00;96705.89;107110;1267;22792;-77
2023/12/14 04:39:15;;;;;;;50.30;43.40;;;;;;;2.55;100.00;96714.52;106565;1281;22544;-78
2023/12/14 04:41:43;;;;;;;58.30;44.00;;;;;;;2.54;100.00;96718.63;106854;1281;22563;-78
2023/12/14 04:44:11;;;;;;;49.00;41.50;;;;;;;2.56;100.00;96722.77;106868;1281;22565;-77
2023/12/14 04:46:40;;;;;;;49.20;42.10;;;;;;;2.56;100.00;96728.39;106483;1281;25523;-79
2023/12/14 04:49:08;;;;;;;47.50;41.20;;;;;;;2.55;100.00;96731.65;106833;1281;22635;-78
2023/12/14 04:51:37;;;;;;;49.20;43.20;;;;;;;2.54;100.00;96735.27;106732;1275;22659;-78
2023/12/14 04:54:05;;;;;;;46.60;40.80;;;;;;;2.53;100.00;96737.57;106835;1281;24225;-78
2023/12/14 04:56:33;;;;;;;46.60;41.50;;;;;;;2.56;100.00;96747.45;106395;1278;22558;-78
2023/12/14 04:59:01;;;;;;;48.90;43.10;;;;;;;2.57;100.00;96748.23;106702;1281;23021;-78
2023/12/14 05:01:29;;;;;;;48.80;42.00;;;;;;;2.60;100.00;96756.14;106749;1274;22557;-78
2023/12/14 05:04:01;;;;;;;49.20;44.00;;;;;;;2.63;100.00;96756.23;106373;1281;24260;-77
2023/12/14 05:06:29;;;;;;;55.00;46.90;;;;;;;2.62;100.00;96760.06;106384;1278;22552;-78
2023/12/14 05:08:58;;;;;;;51.70;41.80;;;;;;;2.61;100.00;96759.11;106637;1271;25411;-78
2023/12/14 05:11:26;;;;;;;50.40;44.90;;;;;;;2.61;100.00;96762.35;106867;1268;22549;-78
2023/12/14 05:13:54;;;;;;;48.40;43.30;;;;;;;2.66;100.00;96765.89;106893;1281;24330;-78
2023/12/14 05:16:26;;;;;;;49.10;41.50;;;;;;;2.69;100.00;96762.98;106818;1281;22547;-79
2023/12/14 05:18:54;;;;;;;48.10;40.90;;;;;;;2.73;100.00;96763.23;106650;1281;24254;-77
2023/12/14 05:21:23;;;;;;;45.70;40.90;;;;;;;2.76;100.00;96767.80;106843;1281;22662;-78
2023/12/14 05:23:51;;;;;;;45.80;37.80;;;;;;;2.77;100.00;96768.86;106535;1265;23922;-79
2023/12/14 05:26:19;;;;;;;44.10;39.00;;;;;;;2.74;100.00;96771.58;106396;1280;25373;-78
2023/12/14 05:28:47;;;;;;;42.20;37.20;;;;;;;2.69;100.00;96771.77;106418;1267;22662;-78
2023/12/14 05:31:15;;;;;;;45.70;41.20;;;;;;;2.65;100.00;96778.08;106461;1280;24270;-78
2023/12/14 05:33:43;;;;;;;41.50;37.20;;;;;;;2.68;100.00;96780.66;106404;1267;22543;-77
2023/12/14 05:36:11;;;;;;;41.30;36.80;;;;;;;2.73;100.00;96790.84;106689;1278;22559;-78
2023/12/14 05:38:41;;;;;;;43.30;39.00;;;;;;;2.79;100.00;96789.27;106535;1275;22533;-78
2023/12/14 05:41:10;;;;;;;42.00;37.60;;;;;;;2.82;100.00;96795.05;106512;1270;22556;-77
2023/12/14 05:43:38;;;;;;;42.10;37.60;;;;;;;2.82;100.00;96793.41;106873;1281;22538;-78
2023/12/14 05:46:06;;;;;;;40.50;36.40;;;;;;;2.86;100.00;96793.97;106418;1275;22745;-78
2023/12/14 05:48:34;;;;;;;40.30;36.10;;;;;;;2.85;100.00;96799.98;106389;1266;22544;-78
2023/12/14 05:51:02;;;;;;;41.70;37.30;;;;;;;2.82;100.00;96802.71;106412;1259;23488;-78
2023/12/14 05:53:30;;;;;;;42.10;37.70;;;;;;;2.77;100.00;96810.25;106389;1281;22574;-78
2023/12/14 05:55:59;;;;;;;40.00;35.60;;;;;;;2.73;100.00;96817.28;106761;1275;22552;-78
2023/12/14 05:58:28;;;;;;;37.30;33.50;;;;;;;2.70;100.00;96820.02;106754;1267;22639;-79
2023/12/14 06:00:56;;;;;;;37.00;33.10;;;;;;;2.65;100.00;96823.18;106764;1278;22544;-78
2023/12/14 06:03:24;;;;;;;37.00;33.40;;;;;;;2.64;100.00;96826.96;106718;1267;24382;-78
2023/12/14 06:05:53;;;;;;;35.20;31.60;;;;;;;2.66;100.00;96834.40;106749;1266;25333;-79
2023/12/14 06:08:21;;;;;;;34.20;30.80;;;;;;;2.68;100.00;96838.97;106699;1275;22570;-80
2023/12/14 06:10:49;;;;;;;32.90;29.60;;;;;;;2.67;100.00;96837.38;106756;1281;24267;-79
2023/12/14 06:13:17;;;;;;;32.90;29.50;;;;;;;2.68;100.00;96839.18;106820;1281;22635;-78
2023/12/14 06:15:45;;;;;;;36.40;32.70;;;;;;;2.71;100.00;96843.42;106528;1273;25574;-78
2023/12/14 06:18:13;;;;;;;33.90;30.70;;;;;;;2.77;100.00;96845.89;106787;1281;22551;-79
2023/12/14 06:20:41;;;;;;;34.80;31.10;;;;;;;2.81;100.00;96848.05;106829;1281;22557;-78
2023/12/14 06:23:09;;;;;;;33.20;31.20;;;;;;;2.82;100.00;96853.90;106901;1270;22636;-78
2023/12/14 06:25:37;;;;;;;33.40;30.20;;;;;;;2.81;100.00;96855.35;106821;1269;26640;-78
2023/12/14 06:28:05;;;;;;;36.90;33.20;;;;;;;2.77;100.00;96860.00;106669;1281;23315;-78
2023/12/14 06:31:24;;;;;;;36.50;32.80;;;;;;;2.71;100.00;96866.40;106749;1281;24030;-78
2023/12/14 06:33:52;;;;;;;34.80;31.10;;;;;;;2.67;100.00;96872.70;106706;1267;22598;-79
2023/12/14 06:36:21;;;;;;;32.40;29.10;;;;;;;2.65;100.00;96872.39;106735;1275;24225;-79
2023/12/14 06:38:49;;;;;;;33.00;29.60;;;;;;;2.65;100.00;96875.36;106720;1267;22613;-79
2023/12/14 06:41:25;;;;;;;30.20;27.00;;;;;;;2.63;100.00;96877.23;106794;1281;25523;-77
2023/12/14 06:43:54;;;;;;;31.50;28.50;;;;;;;2.63;100.00;96874.84;106475;1259;22587;-79
2023/12/14 06:46:23;;;;;;;29.90;26.90;;;;;;;2.62;100.00;96876.55;107432;1268;24217;-78
2023/12/14 06:48:51;;;;;;;30.10;27.10;;;;;;;2.64;100.00;96879.61;107474;1281;22711;-78
2023/12/14 06:51:19;;;;;;;27.00;24.40;;;;;;;2.62;100.00;96889.36;107748;1281;23892;-79
2023/12/14 06:53:47;;;;;;;26.10;23.60;;;;;;;2.60;100.00;96891.19;106828;1281;22621;-78
2023/12/14 06:56:15;;;;;;;27.20;24.60;;;;;;;2.53;100.00;96893.13;106569;1276;22539;-78
2023/12/14 06:58:44;;;;;;;27.60;25.10;;;;;;;2.48;100.00;96894.73;106394;1276;23945;-78
2023/12/14 07:01:14;;;;;;;27.80;25.10;;;;;;;2.45;100.00;96897.89;106351;1273;22541;-79
2023/12/14 07:03:44;;;;;;;24.90;22.50;;;;;;;2.44;100.00;96901.23;106643;1273;24292;-78
2023/12/14 07:06:13;;;;;;;29.00;26.30;;;;;;;2.46;100.00;96904.94;106807;1278;22547;-80
2023/12/14 07:08:42;;;;;;;28.10;25.30;;;;;;;2.48;100.00;96908.77;106849;1269;25542;-78
2023/12/14 07:11:11;;;;;;;25.40;22.70;;;;;;;2.51;100.00;96913.56;106735;1281;22561;-79
2023/12/14 07:13:40;;;;;;;25.80;23.30;;;;;;;2.53;100.00;96918.33;106757;1278;22545;-79
2023/12/14 07:16:10;;;;;;;25.80;23.40;;;;;;;2.52;100.00;96925.14;106728;1269;24229;-79
2023/12/14 07:18:40;;;;;;;26.90;24.20;;;;;;;2.51;100.00;96925.09;106759;1275;22550;-79
2023/12/14 07:21:08;;;;;;;24.80;22.30;;;;;;;2.56;100.00;96935.56;106804;1266;22557;-78
2023/12/14 07:23:37;;;;;;;25.40;23.00;;;;;;;2.61;100.00;96938.14;106366;1281;25297;-78
2023/12/14 07:26:05;;;;;;;25.90;23.50;;;;;;;2.65;100.00;96939.25;106710;1266;22594;-79
2023/12/14 07:28:35;;;;;;;26.00;23.30;;;;;;;2.66;100.00;96946.59;106718;1268;25113;-80
2023/12/14 07:31:03;;;;;;;24.20;22.00;;;;;;;2.70;100.00;96944.44;106723;1270;25438;-78
2023/12/14 07:33:31;;;;;;;27.80;25.10;;;;;;;2.76;100.00;96944.01;106727;1262;25392;-77
2023/12/14 07:36:00;;;;;;;27.50;24.80;;;;;;;2.82;100.00;96952.11;106434;1259;24278;-80
2023/12/14 07:38:28;;;;;;;27.70;25.10;;;;;;;2.85;100.00;96954.19;106876;1265;25393;-79
2023/12/14 07:40:56;;;;;;;27.30;24.40;;;;;;;2.90;100.00;96956.73;106756;1281;25307;-78
2023/12/14 07:43:24;;;;;;;28.20;25.30;;;;;;;2.89;100.00;96958.33;106695;1274;22597;-78
2023/12/14 07:45:52;;;;;;;26.70;24.10;;;;;;;2.89;100.00;96963.11;106650;1265;22552;-75
2023/12/14 07:48:20;;;;;;;26.60;23.90;;;;;;;2.92;100.00;96963.84;106383;1275;23903;-77
2023/12/14 07:50:48;;;;;;;26.20;23.80;;;;;;;2.94;100.00;96968.04;106390;1268;22548;-74
2023/12/14 07:53:16;;;;;;;25.20;22.90;;;;;;;2.99;100.00;96973.98;106414;1281;22553;-77
2023/12/14 07:55:44;;;;;;;22.70;20.40;;;;;;;3.02;100.00;96980.42;106427;1281;24198;-77
2023/12/14 07:58:13;;;;;;;22.70;20.60;;;;;;;2.99;100.00;96987.50;106362;1278;22545;-76
2023/12/14 08:00:41;;;;;;;21.00;19.10;;;;;;;2.90;100.00;96988.44;106389;1270;22660;-78
2023/12/14 08:03:09;;;;;;;21.80;19.70;;;;;;;2.82;100.00;96990.54;106756;1269;22562;-79
2023/12/14 08:05:37;;;;;;;20.80;18.60;;;;;;;2.77;100.00;96991.73;106805;1281;24261;-78
2023/12/14 08:08:05;;;;;;;19.80;17.90;;;;;;;2.77;100.00;96997.36;106966;1278;22527;-78
2023/12/14 08:10:33;;;;;;;19.50;17.60;;;;;;;2.74;100.00;96997.85;106728;1273;22559;-80
2023/12/14 08:13:02;;;;;;;18.30;16.50;;;;;;;2.78;100.00;96999.91;106416;1281;22580;-78
2023/12/14 08:15:30;;;;;;;19.30;17.40;;;;;;;2.72;100.00;97000.77;106850;1275;22728;-78
2023/12/14 08:17:58;;;;;;;20.90;18.90;;;;;;;2.71;100.00;97009.08;107074;1269;24382;-77
2023/12/14 08:20:26;;;;;;;24.00;21.70;;;;;;;2.69;100.00;97010.52;106607;1270;23352;-76
2023/12/14 08:22:55;;;;;;;23.80;21.60;;;;;;;2.71;100.00;97015.85;106582;1275;25333;-76
2023/12/14 08:25:23;;;;;;;23.50;21.40;;;;;;;2.76;100.00;97018.38;106558;1266;25489;-76
2023/12/14 08:27:51;;;;;;;23.60;21.20;;;;;;;2.81;100.00;97018.90;106488;1273;23437;-76
2023/12/14 08:30:19;;;;;;;22.30;20.10;;;;;;;2.87;100.00;97020.11;106495;1281;22647;-76
2023/12/14 08:32:47;;;;;;;24.90;22.70;;;;;;;2.91;100.00;97020.27;106418;1262;22526;-76
2023/12/14 08:35:15;;;;;;;24.50;22.20;;;;;;;2.94;100.00;97020.46;106454;1266;25522;-77
2023/12/14 08:37:44;;;;;;;22.20;20.20;;;;;;;2.99;100.00;97027.20;106436;1275;23899;-77
2023/12/14 08:40:12;;;;;;;20.60;18.50;;;;;;;3.07;100.00;97035.01;106430;1281;22986;-76
2023/12/14 08:42:40;;;;;;;20.50;18.60;;;;;;;3.15;100.00;97043.88;106490;1277;25429;-76
2023/12/14 08:45:11;;;;;;;21.40;19.30;;;;;;;3.21;100.00;97048.05;106525;1266;22564;-77
2023/12/14 08:47:39;;;;;;;22.50;20.40;;;;;;;3.24;100.00;97054.59;106721;1276;22544;-78
2023/12/14 08:50:08;;;;;;;32.60;29.90;;;;;;;3.29;100.00;97058.05;106491;1281;22533;-78
2023/12/14 08:52:37;;;;;;;20.90;18.90;;;;;;;3.32;100.00;97061.86;106843;1258;24385;-78
2023/12/14 08:55:07;;;;;;;23.50;21.30;;;;;;;3.29;100.00;97066.83;106871;1281;23438;-77
2023/12/14 08:57:35;;;;;;;21.70;19.80;;;;;;;3.23;100.00;97069.50;106519;1278;22553;-77
2023/12/14 09:00:04;;;;;;;18.70;16.90;;;;;;;3.26;100.00;97072.59;106533;1281;22626;-77
2023/12/14 09:02:32;;;;;;;17.50;15.80;;;;;;;3.31;100.00;97076.94;106604;1278;23095;-77
2023/12/14 09:05:01;;;;;;;20.40;18.30;;;;;;;3.34;100.00;97082.58;106609;1278;22601;-77
2023/12/14 09:07:30;;;;;;;17.60;16.00;;;;;;;3.36;100.00;97085.66;106556;1278;24372;-77
2023/12/14 09:09:58;;;;;;;22.40;20.30;;;;;;;3.33;100.00;97091.58;106568;1277;24813;-77
2023/12/14 09:12:26;;;;;;;20.40;18.60;;;;;;;3.33;100.00;97092.80;106561;1275;22540;-77
2023/12/14 09:14:55;;;;;;;22.00;19.80;;;;;;;3.35;100.00;97099.25;106643;1281;22550;-77
2023/12/14 09:17:32;;;;;;;27.10;24.70;;;;;;;3.36;100.00;97100.84;106665;1278;22559;-77
2023/12/14 09:20:05;;;;;;;23.80;21.50;;;;;;;3.37;100.00;97105.84;106554;1267;22635;-77
2023/12/14 09:22:33;;;;;;;24.80;22.60;;;;;;;3.40;100.00;97108.60;106528;1270;24417;-79
2023/12/14 09:25:01;;;;;;;22.80;20.80;;;;;;;3.41;100.00;97109.06;106912;1275;22533;-77
2023/12/14 09:27:30;;;;;;;23.70;21.50;;;;;;;3.39;100.00;97109.45;106499;1271;23391;-78
2023/12/14 09:29:59;;;;;;;23.90;21.70;;;;;;;3.40;100.00;97114.23;106389;1274;22651;-77
2023/12/14 09:32:27;;;;;;;25.60;23.10;;;;;;;3.40;100.00;97115.30;106494;1268;24362;-78
2023/12/14 09:34:56;;;;;;;24.90;22.50;;;;;;;3.38;100.00;97117.02;106347;1281;22552;-76
2023/12/14 09:37:24;;;;;;;27.00;24.20;;;;;;;3.39;100.00;97119.20;106517;1276;22540;-78
2023/12/14 09:39:52;;;;;;;28.10;25.10;;;;;;;3.33;100.00;97119.20;106569;1268;24244;-77
2023/12/14 09:42:21;;;;;;;28.80;25.70;;;;;;;3.24;100.00;97120.46;107121;1275;22839;-76
2023/12/14 09:44:51;;;;;;;31.30;26.50;;;;;;;3.15;100.00;97118.36;106544;1281;25421;-76
2023/12/14 09:47:19;;;;;;;28.40;25.30;;;;;;;3.15;100.00;97121.40;106444;1281;22566;-77
2023/12/14 09:49:49;;;;;;;26.60;23.70;;;;;;;3.15;100.00;97124.74;106408;1281;24508;-77
2023/12/14 09:52:17;;;;;;;24.70;21.90;;;;;;;3.15;100.00;97131.13;106471;1274;129882;-77
2023/12/14 09:54:45;;;;;;;23.10;20.80;;;;;;;3.16;100.00;97129.10;106712;1281;22536;-77
2023/12/14 09:57:13;;;;;;;25.20;22.90;;;;;;;3.11;100.00;97128.38;106539;1275;24239;-77
2023/12/14 09:59:42;;;;;;;25.20;22.80;;;;;;;3.12;100.00;97133.86;106589;1281;23287;-76
2023/12/14 10:02:11;;;;;;;28.50;25.70;;;;;;;3.13;100.00;97128.20;106614;1281;25362;-77
2023/12/14 10:04:39;;;;;;;22.40;20.40;;;;;;;3.13;100.00;97133.63;106463;1278;24219;-76
2023/12/14 10:07:08;;;;;;;23.50;21.30;;;;;;;3.12;100.00;97133.80;106401;1277;24256;-77
2023/12/14 10:09:37;;;;;;;26.60;24.10;;;;;;;3.15;100.00;97139.02;106406;1268;22547;-78
2023/12/14 10:12:09;;;;;;;27.90;25.50;;;;;;;3.17;100.00;97141.20;106287;1275;23881;-77
2023/12/14 10:14:38;;;;;;;23.10;20.90;;;;;;;3.22;100.00;97140.64;106454;1266;23140;-75
2023/12/14 10:17:21;;;;;;;24.50;22.40;;;;;;;3.24;100.00;97143.52;106437;1271;22802;-77
2023/12/14 10:19:49;;;;;;;26.30;23.90;;;;;;;3.24;100.00;97146.94;106712;1278;22574;-78
2023/12/14 10:22:18;;;;;;;26.50;24.00;;;;;;;3.21;100.00;97151.04;106705;1266;25548;-78
2023/12/14 10:24:47;;;;;;;24.60;22.20;;;;;;;3.19;100.00;97151.26;106951;1273;22552;-77
2023/12/14 10:27:16;;;;;;;25.40;22.90;;;;;;;3.18;100.00;97154.29;106595;1278;22553;-78
2023/12/14 10:29:46;;;;;;;26.90;24.40;;;;;;;3.17;100.00;97156.09;106965;1275;24540;-75
2023/12/14 10:32:14;;;;;;;25.60;23.20;;;;;;;3.18;100.00;97159.08;106678;1278;25437;-78
2023/12/14 10:34:42;;;;;;;26.60;24.00;;;;;;;3.21;100.00;97162.42;106858;1278;22772;-77
2023/12/14 10:37:13;;;;;;;26.50;23.60;;;;;;;3.24;100.00;97165.09;106467;1269;24232;-78
2023/12/14 10:39:42;;;;;;;28.60;25.70;;;;;;;3.25;100.00;97167.59;106465;1275;22729;-77
2023/12/14 10:42:13;;;;;;;28.80;26.20;;;;;;;3.23;100.00;97169.94;106941;1276;22796;-77
2023/12/14 10:44:54;;;;;;;27.90;25.30;;;;;;;3.22;100.00;97173.18;106420;1275;22581;-77
2023/12/14 10:47:44;;;;;;;26.70;24.20;;;;;;;3.24;100.00;97177.71;106429;1281;25488;-77
2023/12/14 10:50:15;;;;;;;27.20;24.10;;;;;;;3.23;100.00;97179.73;106470;1272;23891;-77
2023/12/14 10:52:44;;;;;;;29.60;26.80;;;;;;;3.23;100.00;97180.85;106516;1275;22557;-76
2023/12/14 10:55:23;;;;;;;29.70;26.90;;;;;;;3.28;100.00;97182.91;106434;1271;22547;-77
2023/12/14 10:57:53;;;;;;;30.50;27.70;;;;;;;3.27;100.00;97185.05;106760;1269;22684;-77
2023/12/14 11:00:21;;;;;;;30.00;27.20;;;;;;;3.21;100.00;97185.64;106460;1272;22731;-77
2023/12/14 11:02:49;;;;;;;32.20;29.10;;;;;;;3.18;100.00;97186.81;106397;1271;22657;-77
2023/12/14 11:05:22;;;;;;;30.50;27.50;;;;;;;3.19;100.00;97187.73;106420;1272;25333;-77
2023/12/14 11:08:00;;;;;;;32.00;29.00;;;;;;;3.21;100.00;97193.05;106824;1277;22534;-77
2023/12/14 11:10:38;;;;;;;31.40;28.50;;;;;;;3.20;100.00;97196.55;106509;1267;23046;-78
2023/12/14 11:13:10;;;;;;;32.10;29.20;;;;;;;3.22;100.00;97200.83;106496;1269;25279;-78
2023/12/14 11:15:40;;;;;;;33.90;30.60;;;;;;;3.27;100.00;97199.06;106448;1265;22561;-76
2023/12/14 11:18:09;;;;;;;34.20;30.70;;;;;;;3.26;100.00;97202.63;106453;1278;22531;-77